createdAt,value
2023-03-15T00:00:00.402Z,3.30
2023-03-15T00:01:00.586Z,2.90
2023-03-15T00:02:00.360Z,2.60
2023-03-15T00:03:00.353Z,2.50
2023-03-15T00:04:00.375Z,3.00
2023-03-15T00:05:01.562Z,2.50
2023-03-15T00:06:00.538Z,3.10
2023-03-15T00:07:00.623Z,3.00
2023-03-15T00:08:00.288Z,2.80
2023-03-15T00:09:00.297Z,2.50
2023-03-15T00:10:00.410Z,3.30
2023-03-15T00:11:00.270Z,3.00
2023-03-15T00:12:00.241Z,3.30
2023-03-15T00:13:00.257Z,3.00
2023-03-15T00:14:00.229Z,3.10
2023-03-15T00:15:00.223Z,3.00
2023-03-15T00:16:00.267Z,2.90
2023-03-15T00:17:00.191Z,3.00
2023-03-15T00:18:01.344Z,3.20
2023-03-15T00:19:00.189Z,2.90
2023-03-15T00:20:00.180Z,3.20
2023-03-15T00:21:00.156Z,2.90
2023-03-15T00:22:00.142Z,3.10
2023-03-15T00:23:00.153Z,3.30
2023-03-15T00:24:00.122Z,3.20
2023-03-15T00:25:00.108Z,3.20
2023-03-15T00:26:00.102Z,3.40
2023-03-15T00:27:00.118Z,3.20
2023-03-15T00:28:00.097Z,3.40
2023-03-15T00:29:00.061Z,3.40
2023-03-15T00:30:00.070Z,3.50
2023-03-15T00:31:00.110Z,3.30
2023-03-15T00:32:00.026Z,3.10
2023-03-15T00:33:00.053Z,3.10
2023-03-15T00:33:59.994Z,3.40
2023-03-15T00:34:59.989Z,3.90
2023-03-15T00:36:00.046Z,3.10
2023-03-15T00:36:59.967Z,3.60
2023-03-15T00:37:59.954Z,3.30
2023-03-15T00:38:59.987Z,3.00
2023-03-15T00:39:59.934Z,3.30
2023-03-15T00:40:59.923Z,3.60
2023-03-15T00:41:59.908Z,3.40
2023-03-15T00:42:59.899Z,3.70
2023-03-15T00:43:59.973Z,3.40
2023-03-15T00:44:59.932Z,3.40
2023-03-15T00:45:59.863Z,3.90
2023-03-15T00:46:59.854Z,3.50
2023-03-15T00:47:59.846Z,3.90
2023-03-15T00:48:59.836Z,3.70
2023-03-15T00:49:59.815Z,3.70
2023-03-15T00:50:59.836Z,3.60
2023-03-15T00:51:59.816Z,4.00
2023-03-15T00:52:59.786Z,3.90
2023-03-15T00:53:59.778Z,4.00
2023-03-15T00:54:59.775Z,4.10
2023-03-15T00:55:59.770Z,3.70
2023-03-15T00:56:59.744Z,3.80
2023-03-15T00:57:59.744Z,3.80
2023-03-15T00:58:59.733Z,3.30
2023-03-15T00:59:59.708Z,3.50
2023-03-15T01:00:59.718Z,3.50
2023-03-15T01:01:59.766Z,3.90
2023-03-15T01:02:59.709Z,4.10
2023-03-15T01:03:59.658Z,3.30
2023-03-15T01:04:59.656Z,3.40
2023-03-15T01:05:59.672Z,4.00
2023-03-15T01:06:59.637Z,4.10
2023-03-15T01:07:59.616Z,3.90
2023-03-15T01:08:59.631Z,3.30
2023-03-15T01:09:59.594Z,3.50
2023-03-15T01:10:59.611Z,3.50
2023-03-15T01:11:59.595Z,3.60
2023-03-15T01:12:59.582Z,3.40
2023-03-15T01:13:59.555Z,3.40
2023-03-15T01:14:59.543Z,3.40
2023-03-15T01:15:59.564Z,3.00
2023-03-15T01:16:59.579Z,3.30
2023-03-15T01:17:59.503Z,3.20
2023-03-15T01:18:59.512Z,3.10
2023-03-15T01:19:59.480Z,3.10
2023-03-15T01:20:59.497Z,2.90
2023-03-15T01:21:59.460Z,2.90
2023-03-15T01:22:59.474Z,3.10
2023-03-15T01:23:59.449Z,2.80
2023-03-15T01:24:59.438Z,2.60
2023-03-15T01:25:59.413Z,2.40
2023-03-15T01:26:59.410Z,2.70
2023-03-15T01:27:59.423Z,2.90
2023-03-15T01:28:59.389Z,2.40
2023-03-15T01:29:59.389Z,2.40
2023-03-15T01:31:00.050Z,2.60
2023-03-15T01:31:59.344Z,2.50
2023-03-15T01:32:59.537Z,2.70
2023-03-15T01:33:59.356Z,2.20
2023-03-15T01:34:59.318Z,2.50
2023-03-15T01:35:59.331Z,2.70
2023-03-15T01:36:59.297Z,2.40
2023-03-15T01:37:59.279Z,2.40
2023-03-15T01:38:59.286Z,2.40
2023-03-15T01:39:59.278Z,2.10
2023-03-15T01:40:59.264Z,2.40
2023-03-15T01:41:59.242Z,2.40
2023-03-15T01:42:59.226Z,2.30
2023-03-15T01:43:59.219Z,2.10
2023-03-15T01:44:59.217Z,2.30
2023-03-15T01:45:59.425Z,2.20
2023-03-15T01:46:59.225Z,2.20
2023-03-15T01:47:59.169Z,2.40
2023-03-15T01:48:59.162Z,2.80
2023-03-15T01:49:59.153Z,2.60
2023-03-15T01:50:59.142Z,2.50
2023-03-15T01:51:59.147Z,2.50
2023-03-15T01:52:59.121Z,2.80
2023-03-15T01:53:59.102Z,3.00
2023-03-15T01:54:59.097Z,2.90
2023-03-15T01:55:59.088Z,3.00
2023-03-15T01:56:59.173Z,2.70
2023-03-15T01:57:59.058Z,2.80
2023-03-15T01:58:59.080Z,2.90
2023-03-15T01:59:59.084Z,2.90
2023-03-15T02:00:59.050Z,2.80
2023-03-15T02:01:59.054Z,3.40
2023-03-15T02:02:59.003Z,2.70
2023-03-15T02:03:58.985Z,3.50
2023-03-15T02:04:58.990Z,3.20
2023-03-15T02:05:58.972Z,3.40
2023-03-15T02:06:59.018Z,3.20
2023-03-15T02:07:58.947Z,2.90
2023-03-15T02:08:58.937Z,3.20
2023-03-15T02:09:58.950Z,3.30
2023-03-15T02:10:58.921Z,3.70
2023-03-15T02:11:58.928Z,3.50
2023-03-15T02:12:58.905Z,3.40
2023-03-15T02:13:58.877Z,3.60
2023-03-15T02:14:58.874Z,3.60
2023-03-15T02:15:58.922Z,3.60
2023-03-15T02:16:58.885Z,3.70
2023-03-15T02:17:58.852Z,3.30
2023-03-15T02:18:58.836Z,4.00
2023-03-15T02:19:58.812Z,3.70
2023-03-15T02:20:58.805Z,4.20
2023-03-15T02:21:58.823Z,4.20
2023-03-15T02:22:58.801Z,4.10
2023-03-15T02:23:58.768Z,4.30
2023-03-15T02:24:58.774Z,4.10
2023-03-15T02:25:58.765Z,5.50
2023-03-15T02:26:58.789Z,5.20
2023-03-15T02:27:58.748Z,5.10
2023-03-15T02:28:58.732Z,5.40
2023-03-15T02:29:58.706Z,5.60
2023-03-15T02:30:58.706Z,5.30
2023-03-15T02:31:58.784Z,5.00
2023-03-15T02:32:58.786Z,5.00
2023-03-15T02:33:58.664Z,5.90
2023-03-15T02:34:58.651Z,6.30
2023-03-15T02:35:58.648Z,6.50
2023-03-15T02:36:58.635Z,5.80
2023-03-15T02:37:58.616Z,7.20
2023-03-15T02:38:58.636Z,7.20
2023-03-15T02:39:58.598Z,6.90
2023-03-15T02:40:58.588Z,7.70
2023-03-15T02:41:58.619Z,7.30
2023-03-15T02:42:58.566Z,7.50
2023-03-15T02:43:58.568Z,8.10
2023-03-15T02:44:58.543Z,8.60
2023-03-15T02:45:58.557Z,9.40
2023-03-15T02:46:58.550Z,9.80
2023-03-15T02:47:58.542Z,9.20
2023-03-15T02:48:58.499Z,9.90
2023-03-15T02:49:58.510Z,9.50
2023-03-15T02:50:58.477Z,10.90
2023-03-15T02:51:58.468Z,10.80
2023-03-15T02:52:58.462Z,10.50
2023-03-15T02:53:58.438Z,11.00
2023-03-15T02:54:58.461Z,11.30
2023-03-15T02:55:58.438Z,11.10
2023-03-15T02:56:58.453Z,11.30
2023-03-15T02:57:58.426Z,11.20
2023-03-15T02:58:58.389Z,12.00
2023-03-15T02:59:58.376Z,11.10
2023-03-15T03:00:58.424Z,10.20
2023-03-15T03:01:58.362Z,10.90
2023-03-15T03:02:58.350Z,11.10
2023-03-15T03:03:58.326Z,11.00
2023-03-15T03:04:58.333Z,10.90
2023-03-15T03:05:58.306Z,10.70
2023-03-15T03:06:58.329Z,10.90
2023-03-15T03:07:58.290Z,11.20
2023-03-15T03:08:58.281Z,10.70
2023-03-15T03:09:58.264Z,11.10
2023-03-15T03:10:58.260Z,10.70
2023-03-15T03:11:58.278Z,11.00
2023-03-15T03:12:58.237Z,10.40
2023-03-15T03:13:58.218Z,10.80
2023-03-15T03:14:58.216Z,11.60
2023-03-15T03:15:58.194Z,11.10
2023-03-15T03:16:58.267Z,11.10
2023-03-15T03:17:58.207Z,10.80
2023-03-15T03:18:58.173Z,10.70
2023-03-15T03:19:58.149Z,10.60
2023-03-15T03:20:58.144Z,11.30
2023-03-15T03:21:58.127Z,10.70
2023-03-15T03:22:58.144Z,10.60
2023-03-15T03:23:58.109Z,11.10
2023-03-15T03:24:58.092Z,10.90
2023-03-15T03:25:58.080Z,10.70
2023-03-15T03:26:58.322Z,10.60
2023-03-15T03:27:58.093Z,10.80
2023-03-15T03:28:58.062Z,11.50
2023-03-15T03:29:58.036Z,11.00
2023-03-15T03:30:58.074Z,11.00
2023-03-15T03:31:58.014Z,11.10
2023-03-15T03:32:58.124Z,11.70
2023-03-15T03:33:58.011Z,11.10
2023-03-15T03:34:57.972Z,11.30
2023-03-15T03:35:57.989Z,10.70
2023-03-15T03:36:57.955Z,11.70
2023-03-15T03:37:57.945Z,11.40
2023-03-15T03:38:57.959Z,12.20
2023-03-15T03:39:57.932Z,11.70
2023-03-15T03:40:57.946Z,11.40
2023-03-15T03:41:57.899Z,11.30
2023-03-15T03:42:57.884Z,11.30
2023-03-15T03:43:57.896Z,11.00
2023-03-15T03:44:57.864Z,11.90
2023-03-15T03:45:57.871Z,10.70
2023-03-15T03:46:57.862Z,11.20
2023-03-15T03:47:57.835Z,11.00
2023-03-15T03:48:57.839Z,11.30
2023-03-15T03:49:57.814Z,12.10
2023-03-15T03:50:57.804Z,11.70
2023-03-15T03:51:57.786Z,11.70
2023-03-15T03:52:57.773Z,11.50
2023-03-15T03:53:57.793Z,11.70
2023-03-15T03:54:57.755Z,11.40
2023-03-15T03:55:57.741Z,11.30
2023-03-15T03:56:57.731Z,12.10
2023-03-15T03:57:57.721Z,11.70
2023-03-15T03:58:57.730Z,11.40
2023-03-15T03:59:57.700Z,11.70
2023-03-15T04:00:57.682Z,11.60
2023-03-15T04:01:57.675Z,11.90
2023-03-15T04:02:57.657Z,12.20
2023-03-15T04:03:57.695Z,11.50
2023-03-15T04:04:57.652Z,11.40
2023-03-15T04:05:57.638Z,11.10
2023-03-15T04:06:57.667Z,10.40
2023-03-15T04:07:57.608Z,10.70
2023-03-15T04:08:57.620Z,10.70
2023-03-15T04:09:57.589Z,11.20
2023-03-15T04:10:57.565Z,11.00
2023-03-15T04:11:57.571Z,10.70
2023-03-15T04:12:57.545Z,10.70
2023-03-15T04:13:57.563Z,10.80
2023-03-15T04:14:57.528Z,11.10
2023-03-15T04:15:57.903Z,11.20
2023-03-15T04:16:57.513Z,10.40
2023-03-15T04:17:57.489Z,10.60
2023-03-15T04:18:57.512Z,11.60
2023-03-15T04:19:57.475Z,11.50
2023-03-15T04:20:57.480Z,10.90
2023-03-15T04:21:57.453Z,10.70
2023-03-15T04:22:57.469Z,10.50
2023-03-15T04:23:57.453Z,10.80
2023-03-15T04:24:57.424Z,10.30
2023-03-15T04:25:57.401Z,11.10
2023-03-15T04:26:57.394Z,10.80
2023-03-15T04:27:57.385Z,11.20
2023-03-15T04:28:57.398Z,10.80
2023-03-15T04:29:57.366Z,10.80
2023-03-15T04:30:57.390Z,11.40
2023-03-15T04:31:57.337Z,11.10
2023-03-15T04:32:57.360Z,10.90
2023-03-15T04:33:57.357Z,11.50
2023-03-15T04:34:57.316Z,11.40
2023-03-15T04:35:57.335Z,11.60
2023-03-15T04:36:57.295Z,10.90
2023-03-15T04:37:57.275Z,11.50
2023-03-15T04:38:57.291Z,11.70
2023-03-15T04:39:57.257Z,11.40
2023-03-15T04:40:57.259Z,10.90
2023-03-15T04:41:57.245Z,11.10
2023-03-15T04:42:57.229Z,11.40
2023-03-15T04:43:57.252Z,11.60
2023-03-15T04:44:57.202Z,11.80
2023-03-15T04:45:57.191Z,12.00
2023-03-15T04:46:57.219Z,11.50
2023-03-15T04:47:57.167Z,12.00
2023-03-15T04:48:57.188Z,11.60
2023-03-15T04:49:57.146Z,11.40
2023-03-15T04:50:57.151Z,11.80
2023-03-15T04:51:57.128Z,11.20
2023-03-15T04:52:57.114Z,12.30
2023-03-15T04:53:57.128Z,11.80
2023-03-15T04:54:57.098Z,11.40
2023-03-15T04:55:57.079Z,11.40
2023-03-15T04:56:57.078Z,11.10
2023-03-15T04:57:57.052Z,11.10
2023-03-15T04:58:57.078Z,10.90
2023-03-15T04:59:57.055Z,11.80
2023-03-15T05:00:57.133Z,11.70
2023-03-15T05:01:57.135Z,11.60
2023-03-15T05:02:57.022Z,11.70
2023-03-15T05:03:57.011Z,11.30
2023-03-15T05:04:56.984Z,11.60
2023-03-15T05:05:56.974Z,11.70
2023-03-15T05:06:56.963Z,11.80
2023-03-15T05:07:56.948Z,11.10
2023-03-15T05:08:56.964Z,11.00
2023-03-15T05:09:56.930Z,11.80
2023-03-15T05:10:56.914Z,11.40
2023-03-15T05:11:56.904Z,10.70
2023-03-15T05:12:56.898Z,11.10
2023-03-15T05:13:56.898Z,11.20
2023-03-15T05:14:56.892Z,11.20
2023-03-15T05:15:56.900Z,11.20
2023-03-15T05:16:56.849Z,10.90
2023-03-15T05:17:56.831Z,10.80
2023-03-15T05:18:56.859Z,10.30
2023-03-15T05:19:56.812Z,10.80
2023-03-15T05:20:56.807Z,10.90
2023-03-15T05:21:56.786Z,11.00
2023-03-15T05:22:56.789Z,11.00
2023-03-15T05:23:56.793Z,10.40
2023-03-15T05:24:56.761Z,10.80
2023-03-15T05:25:56.748Z,11.00
2023-03-15T05:26:56.743Z,10.90
2023-03-15T05:27:56.719Z,10.60
2023-03-15T05:28:56.735Z,10.70
2023-03-15T05:29:56.699Z,10.70
2023-03-15T05:30:57.933Z,9.90
2023-03-15T05:31:56.715Z,10.20
2023-03-15T05:32:56.728Z,10.90
2023-03-15T05:33:56.688Z,10.60
2023-03-15T05:34:56.650Z,10.90
2023-03-15T05:35:56.729Z,10.30
2023-03-15T05:36:56.648Z,10.60
2023-03-15T05:37:56.636Z,10.20
2023-03-15T05:38:56.627Z,9.70
2023-03-15T05:39:56.589Z,9.60
2023-03-15T05:40:56.586Z,9.90
2023-03-15T05:41:56.639Z,10.30
2023-03-15T05:42:56.578Z,10.40
2023-03-15T05:43:56.565Z,9.30
2023-03-15T05:44:56.535Z,10.70
2023-03-15T05:45:56.552Z,9.80
2023-03-15T05:46:56.524Z,11.30
2023-03-15T05:47:56.499Z,9.00
2023-03-15T05:48:56.515Z,10.00
2023-03-15T05:49:56.490Z,9.50
2023-03-15T05:50:56.473Z,9.40
2023-03-15T05:51:56.451Z,9.40
2023-03-15T05:52:56.451Z,9.70
2023-03-15T05:53:56.453Z,10.10
2023-03-15T05:54:56.429Z,10.80
2023-03-15T05:55:56.413Z,10.40
2023-03-15T05:56:56.406Z,10.60
2023-03-15T05:57:56.392Z,9.60
2023-03-15T05:58:56.397Z,11.20
2023-03-15T05:59:56.364Z,10.60
2023-03-15T06:00:56.351Z,11.10
2023-03-15T06:01:56.342Z,10.30
2023-03-15T06:02:56.419Z,10.90
2023-03-15T06:03:56.395Z,10.60
2023-03-15T06:04:56.315Z,10.30
2023-03-15T06:05:56.292Z,10.80
2023-03-15T06:06:56.432Z,10.90
2023-03-15T06:07:56.272Z,10.60
2023-03-15T06:08:56.291Z,10.20
2023-03-15T06:09:56.253Z,10.10
2023-03-15T06:10:56.240Z,11.00
2023-03-15T06:11:56.226Z,10.70
2023-03-15T06:12:56.223Z,10.80
2023-03-15T06:13:56.233Z,10.20
2023-03-15T06:14:56.207Z,11.60
2023-03-15T06:15:56.201Z,11.60
2023-03-15T06:16:56.279Z,11.30
2023-03-15T06:17:56.162Z,11.60
2023-03-15T06:18:56.183Z,11.10
2023-03-15T06:19:56.136Z,11.40
2023-03-15T06:20:56.129Z,11.70
2023-03-15T06:21:56.120Z,11.60
2023-03-15T06:22:56.109Z,10.90
2023-03-15T06:23:56.115Z,11.10
2023-03-15T06:24:56.087Z,11.60
2023-03-15T06:25:56.073Z,11.60
2023-03-15T06:26:56.066Z,12.20
2023-03-15T06:27:56.044Z,11.80
2023-03-15T06:28:56.069Z,11.80
2023-03-15T06:29:56.032Z,10.90
2023-03-15T06:30:56.083Z,11.20
2023-03-15T06:31:56.027Z,11.50
2023-03-15T06:32:56.055Z,10.70
2023-03-15T06:33:56.008Z,10.70
2023-03-15T06:34:55.991Z,10.90
2023-03-15T06:35:56.005Z,10.60
2023-03-15T06:36:55.962Z,10.00
2023-03-15T06:37:55.947Z,10.30
2023-03-15T06:38:55.960Z,10.50
2023-03-15T06:39:55.919Z,9.90
2023-03-15T06:40:55.903Z,10.00
2023-03-15T06:41:55.913Z,10.00
2023-03-15T06:42:55.916Z,9.50
2023-03-15T06:43:55.896Z,9.40
2023-03-15T06:44:55.873Z,8.90
2023-03-15T06:45:55.931Z,9.20
2023-03-15T06:46:55.927Z,8.80
2023-03-15T06:47:55.821Z,9.80
2023-03-15T06:48:55.852Z,9.10
2023-03-15T06:49:56.870Z,9.60
2023-03-15T06:50:55.803Z,8.90
2023-03-15T06:51:55.786Z,9.70
2023-03-15T06:52:55.770Z,9.50
2023-03-15T06:53:55.787Z,9.10
2023-03-15T06:54:55.751Z,9.40
2023-03-15T06:55:55.736Z,9.90
2023-03-15T06:56:55.733Z,8.70
2023-03-15T06:57:55.742Z,8.30
2023-03-15T06:58:55.729Z,9.20
2023-03-15T06:59:55.699Z,9.30
2023-03-15T07:00:55.682Z,9.10
2023-03-15T07:01:55.726Z,8.70
2023-03-15T07:02:55.728Z,9.00
2023-03-15T07:03:55.678Z,9.00
2023-03-15T07:04:55.638Z,8.90
2023-03-15T07:05:55.628Z,8.70
2023-03-15T07:06:55.616Z,10.10
2023-03-15T07:07:55.606Z,10.00
2023-03-15T07:08:55.593Z,8.90
2023-03-15T07:09:55.612Z,8.60
2023-03-15T07:10:55.575Z,10.30
2023-03-15T07:11:55.560Z,9.40
2023-03-15T07:12:55.558Z,9.60
2023-03-15T07:13:55.541Z,9.00
2023-03-15T07:14:55.559Z,9.60
2023-03-15T07:15:55.563Z,8.40
2023-03-15T07:16:55.514Z,8.80
2023-03-15T07:17:55.541Z,9.00
2023-03-15T07:18:55.511Z,8.40
2023-03-15T07:19:56.947Z,8.90
2023-03-15T07:20:55.469Z,8.00
2023-03-15T07:21:55.448Z,8.20
2023-03-15T07:22:55.450Z,8.90
2023-03-15T07:23:55.436Z,8.20
2023-03-15T07:24:55.447Z,8.00
2023-03-15T07:25:55.852Z,7.80
2023-03-15T07:26:55.397Z,8.20
2023-03-15T07:27:55.381Z,8.20
2023-03-15T07:28:55.377Z,8.20
2023-03-15T07:29:55.393Z,7.80
2023-03-15T07:30:55.376Z,8.30
2023-03-15T07:31:55.414Z,7.70
2023-03-15T07:32:55.511Z,7.70
2023-03-15T07:33:55.324Z,8.00
2023-03-15T07:34:55.331Z,7.80
2023-03-15T07:35:55.357Z,7.50
2023-03-15T07:36:55.290Z,7.20
2023-03-15T07:37:55.273Z,7.80
2023-03-15T07:38:55.286Z,7.40
2023-03-15T07:39:55.277Z,7.80
2023-03-15T07:40:55.254Z,6.90
2023-03-15T07:41:55.225Z,7.10
2023-03-15T07:42:55.216Z,7.50
2023-03-15T07:43:56.945Z,7.80
2023-03-15T07:44:55.223Z,7.10
2023-03-15T07:45:55.173Z,7.10
2023-03-15T07:46:55.267Z,7.60
2023-03-15T07:47:56.625Z,6.80
2023-03-15T07:48:55.147Z,7.50
2023-03-15T07:49:55.149Z,7.80
2023-03-15T07:50:55.126Z,7.30
2023-03-15T07:51:55.110Z,7.60
2023-03-15T07:52:55.139Z,7.30
2023-03-15T07:53:55.085Z,7.10
2023-03-15T07:54:55.111Z,6.90
2023-03-15T07:55:55.072Z,7.50
2023-03-15T07:56:55.056Z,7.10
2023-03-15T07:57:55.050Z,7.20
2023-03-15T07:58:55.044Z,7.30
2023-03-15T07:59:55.039Z,6.80
2023-03-15T08:00:55.013Z,7.50
2023-03-15T08:01:55.065Z,6.50
2023-03-15T08:02:55.070Z,6.80
2023-03-15T08:03:54.998Z,6.60
2023-03-15T08:04:54.991Z,7.10
2023-03-15T08:05:55.522Z,6.60
2023-03-15T08:06:54.978Z,6.90
2023-03-15T08:07:54.931Z,6.90
2023-03-15T08:08:54.918Z,6.30
2023-03-15T08:09:54.931Z,7.00
2023-03-15T08:10:54.902Z,7.00
2023-03-15T08:11:54.887Z,6.70
2023-03-15T08:12:54.880Z,6.80
2023-03-15T08:13:54.859Z,6.70
2023-03-15T08:14:54.963Z,8.30
2023-03-15T08:15:54.931Z,6.70
2023-03-15T08:16:54.837Z,6.40
2023-03-15T08:17:54.828Z,6.90
2023-03-15T08:18:54.806Z,6.70
2023-03-15T08:19:54.824Z,6.30
2023-03-15T08:20:54.799Z,6.90
2023-03-15T08:21:54.782Z,6.20
2023-03-15T08:22:54.772Z,6.80
2023-03-15T08:23:54.758Z,6.70
2023-03-15T08:24:54.766Z,6.30
2023-03-15T08:25:54.733Z,6.80
2023-03-15T08:26:54.721Z,6.40
2023-03-15T08:27:54.723Z,6.80
2023-03-15T08:28:54.698Z,7.20
2023-03-15T08:29:54.715Z,7.00
2023-03-15T08:30:54.676Z,7.30
2023-03-15T08:31:54.756Z,6.80
2023-03-15T08:32:54.722Z,6.80
2023-03-15T08:33:54.643Z,7.30
2023-03-15T08:34:54.654Z,7.40
2023-03-15T08:35:54.648Z,7.30
2023-03-15T08:36:54.702Z,6.80
2023-03-15T08:37:54.603Z,6.40
2023-03-15T08:38:54.579Z,5.90
2023-03-15T08:39:54.605Z,6.60
2023-03-15T08:40:54.561Z,6.40
2023-03-15T08:41:54.565Z,6.80
2023-03-15T08:42:54.555Z,6.30
2023-03-15T08:43:54.536Z,6.40
2023-03-15T08:44:54.533Z,6.20
2023-03-15T08:46:01.042Z,6.10
2023-03-15T08:46:54.616Z,6.60
2023-03-15T08:47:54.484Z,6.30
2023-03-15T08:48:54.465Z,6.40
2023-03-15T08:49:54.491Z,6.50
2023-03-15T08:50:54.449Z,6.50
2023-03-15T08:51:54.438Z,6.40
2023-03-15T08:52:54.417Z,6.00
2023-03-15T08:53:54.413Z,6.20
2023-03-15T08:54:54.415Z,6.00
2023-03-15T08:55:54.390Z,6.30
2023-03-15T08:56:54.373Z,6.00
2023-03-15T08:57:54.381Z,6.20
2023-03-15T08:58:54.369Z,6.30
2023-03-15T08:59:54.366Z,5.80
2023-03-15T09:00:54.336Z,6.60
2023-03-15T09:01:54.373Z,6.40
2023-03-15T09:02:54.303Z,5.90
2023-03-15T09:03:54.381Z,6.20
2023-03-15T09:04:54.309Z,5.90
2023-03-15T09:05:54.290Z,6.30
2023-03-15T09:06:54.292Z,5.80
2023-03-15T09:07:54.253Z,6.20
2023-03-15T09:08:54.235Z,5.70
2023-03-15T09:09:54.282Z,5.80
2023-03-15T09:10:54.210Z,5.70
2023-03-15T09:11:54.210Z,5.40
2023-03-15T09:12:54.236Z,5.50
2023-03-15T09:13:54.189Z,5.60
2023-03-15T09:14:54.187Z,5.70
2023-03-15T09:15:54.176Z,6.00
2023-03-15T09:16:54.203Z,6.50
2023-03-15T09:17:54.154Z,6.20
2023-03-15T09:18:54.139Z,5.60
2023-03-15T09:19:54.144Z,5.80
2023-03-15T09:20:54.109Z,5.30
2023-03-15T09:21:54.098Z,5.30
2023-03-15T09:22:54.096Z,4.80
2023-03-15T09:23:54.081Z,5.00
2023-03-15T09:24:54.087Z,5.60
2023-03-15T09:25:54.054Z,5.30
2023-03-15T09:26:54.033Z,5.70
2023-03-15T09:27:54.040Z,5.90
2023-03-15T09:28:54.037Z,5.40
2023-03-15T09:29:54.009Z,5.50
2023-03-15T09:30:54.075Z,5.60
2023-03-15T09:31:53.991Z,5.50
2023-03-15T09:32:54.002Z,5.10
2023-03-15T09:33:53.966Z,5.70
2023-03-15T09:34:53.948Z,6.20
2023-03-15T09:35:53.956Z,5.70
2023-03-15T09:36:53.952Z,6.00
2023-03-15T09:37:53.919Z,5.40
2023-03-15T09:38:53.910Z,5.20
2023-03-15T09:39:53.906Z,5.40
2023-03-15T09:40:53.881Z,5.30
2023-03-15T09:41:53.894Z,5.10
2023-03-15T09:42:53.897Z,5.20
2023-03-15T09:43:53.852Z,5.20
2023-03-15T09:44:53.845Z,4.80
2023-03-15T09:45:53.862Z,5.10
2023-03-15T09:46:53.904Z,5.10
2023-03-15T09:47:53.805Z,4.30
2023-03-15T09:48:53.825Z,4.50
2023-03-15T09:49:53.787Z,4.30
2023-03-15T09:50:53.786Z,4.30
2023-03-15T09:51:53.779Z,5.00
2023-03-15T09:52:53.756Z,5.20
2023-03-15T09:53:53.743Z,5.30
2023-03-15T09:54:53.753Z,4.80
2023-03-15T09:55:53.739Z,5.10
2023-03-15T09:56:53.705Z,4.90
2023-03-15T09:57:53.696Z,4.90
2023-03-15T09:58:53.686Z,5.50
2023-03-15T09:59:53.821Z,5.20
2023-03-15T10:00:53.665Z,4.60
2023-03-15T10:01:53.765Z,5.30
2023-03-15T10:02:53.640Z,4.70
2023-03-15T10:03:53.789Z,4.60
2023-03-15T10:04:53.610Z,4.60
2023-03-15T10:05:53.644Z,4.30
2023-03-15T10:06:53.615Z,4.00
2023-03-15T10:07:53.585Z,4.40
2023-03-15T10:08:53.571Z,4.50
2023-03-15T10:09:53.596Z,4.00
2023-03-15T10:10:53.609Z,4.10
2023-03-15T10:11:53.585Z,4.30
2023-03-15T10:12:53.527Z,4.10
2023-03-15T10:13:53.567Z,3.90
2023-03-15T10:14:53.508Z,3.40
2023-03-15T10:15:53.534Z,3.90
2023-03-15T10:16:53.518Z,4.40
2023-03-15T10:17:53.473Z,3.60
2023-03-15T10:18:53.450Z,3.80
2023-03-15T10:19:53.530Z,3.80
2023-03-15T10:20:53.493Z,4.30
2023-03-15T10:21:53.455Z,3.90
2023-03-15T10:22:53.431Z,4.20
2023-03-15T10:23:53.462Z,4.20
2023-03-15T10:24:53.383Z,4.20
2023-03-15T10:25:53.401Z,3.90
2023-03-15T10:26:53.376Z,4.40
2023-03-15T10:27:53.363Z,4.70
2023-03-15T10:28:53.383Z,4.10
2023-03-15T10:29:53.335Z,3.70
2023-03-15T10:30:53.364Z,4.00
2023-03-15T10:31:53.347Z,4.20
2023-03-15T10:32:53.331Z,3.00
2023-03-15T10:33:53.308Z,3.60
2023-03-15T10:34:53.285Z,3.20
2023-03-15T10:35:58.588Z,3.00
2023-03-15T10:36:53.386Z,3.00
2023-03-15T10:37:53.265Z,2.90
2023-03-15T10:38:53.229Z,2.70
2023-03-15T10:39:53.246Z,2.30
2023-03-15T10:40:53.215Z,2.80
2023-03-15T10:41:53.205Z,3.20
2023-03-15T10:42:53.183Z,2.90
2023-03-15T10:43:53.252Z,3.30
2023-03-15T10:44:53.209Z,3.00
2023-03-15T10:45:53.267Z,3.20
2023-03-15T10:46:53.260Z,3.10
2023-03-15T10:48:00.327Z,2.90
2023-03-15T10:48:53.121Z,2.90
2023-03-15T10:49:53.176Z,3.10
2023-03-15T10:50:53.110Z,2.60
2023-03-15T10:51:53.108Z,2.70
2023-03-15T10:52:53.060Z,2.90
2023-03-15T10:53:53.060Z,2.50
2023-03-15T10:54:58.725Z,2.10
2023-03-15T10:55:53.097Z,2.00
2023-03-15T10:56:53.107Z,2.00
2023-03-15T10:57:53.031Z,2.00
2023-03-15T10:59:09.478Z,2.30
2023-03-15T10:59:53.011Z,2.30
2023-03-15T11:00:53.001Z,2.10
2023-03-15T11:01:53.086Z,2.20
2023-03-15T11:02:53.016Z,2.00
2023-03-15T11:03:52.943Z,1.70
2023-03-15T11:04:52.949Z,1.60
2023-03-15T11:05:52.915Z,1.70
2023-03-15T11:06:52.908Z,1.50
2023-03-15T11:07:53.011Z,1.70
2023-03-15T11:08:52.903Z,1.90
2023-03-15T11:09:52.887Z,2.20
2023-03-15T11:10:52.864Z,2.30
2023-03-15T11:11:52.846Z,1.80
2023-03-15T11:12:52.845Z,2.10
2023-03-15T11:13:52.831Z,2.10
2023-03-15T11:14:52.841Z,1.80
2023-03-15T11:15:53.013Z,1.80
2023-03-15T11:16:52.792Z,2.30
2023-03-15T11:17:52.848Z,2.70
2023-03-15T11:18:52.765Z,1.90
2023-03-15T11:19:52.786Z,2.10
2023-03-15T11:20:52.808Z,2.00
2023-03-15T11:21:52.735Z,1.80
2023-03-15T11:22:52.719Z,1.70
2023-03-15T11:23:52.718Z,1.80
2023-03-15T11:24:52.728Z,1.80
2023-03-15T11:25:52.687Z,1.50
2023-03-15T11:26:52.704Z,1.40
2023-03-15T11:27:52.664Z,1.80
2023-03-15T11:28:52.652Z,1.20
2023-03-15T11:29:52.646Z,1.30
2023-03-15T11:30:52.627Z,1.50
2023-03-15T11:31:52.650Z,1.50
2023-03-15T11:32:52.812Z,1.70
2023-03-15T11:33:52.596Z,1.40
2023-03-15T11:34:52.579Z,1.50
2023-03-15T11:35:52.624Z,1.60
2023-03-15T11:37:05.249Z,1.60
2023-03-15T11:37:53.814Z,1.80
2023-03-15T11:38:52.570Z,1.60
2023-03-15T11:39:58.811Z,1.50
2023-03-15T11:40:52.518Z,1.50
2023-03-15T11:41:52.534Z,1.60
2023-03-15T11:42:52.492Z,1.50
2023-03-15T11:43:52.532Z,1.80
2023-03-15T11:44:52.471Z,1.70
2023-03-15T11:45:52.500Z,1.50
2023-03-15T11:46:52.455Z,1.50
2023-03-15T11:47:52.443Z,1.40
2023-03-15T11:48:52.425Z,1.70
2023-03-15T11:49:52.445Z,2.00
2023-03-15T11:50:52.418Z,1.70
2023-03-15T11:51:52.399Z,1.80
2023-03-15T11:52:52.379Z,1.60
2023-03-15T11:53:52.375Z,1.60
2023-03-15T11:54:52.367Z,1.50
2023-03-15T11:55:52.379Z,1.30
2023-03-15T11:56:52.338Z,1.60
2023-03-15T11:57:52.336Z,1.50
2023-03-15T11:58:52.320Z,1.30
2023-03-15T11:59:52.348Z,1.70
2023-03-15T12:00:52.334Z,1.80
2023-03-15T12:01:52.371Z,2.30
2023-03-15T12:02:52.291Z,1.50
2023-03-15T12:03:52.265Z,1.70
2023-03-15T12:04:52.277Z,1.50
2023-03-15T12:05:52.237Z,1.50
2023-03-15T12:06:52.256Z,1.50
2023-03-15T12:07:52.215Z,1.70
2023-03-15T12:08:52.242Z,1.70
2023-03-15T12:09:52.267Z,1.50
2023-03-15T12:10:52.187Z,1.30
2023-03-15T12:11:52.174Z,1.80
2023-03-15T12:12:52.184Z,1.60
2023-03-15T12:13:52.154Z,1.70
2023-03-15T12:14:52.145Z,1.70
2023-03-15T12:15:52.125Z,1.50
2023-03-15T12:16:52.194Z,1.70
2023-03-15T12:17:52.139Z,1.60
2023-03-15T12:18:52.088Z,2.00
2023-03-15T12:19:52.079Z,1.50
2023-03-15T12:20:52.065Z,1.60
2023-03-15T12:21:52.067Z,1.60
2023-03-15T12:22:52.124Z,1.60
2023-03-15T12:23:52.511Z,1.90
2023-03-15T12:24:52.016Z,1.50
2023-03-15T12:25:55.072Z,1.60
2023-03-15T12:26:52.003Z,1.70
2023-03-15T12:27:51.988Z,1.40
2023-03-15T12:28:51.974Z,1.60
2023-03-15T12:29:51.997Z,1.20
2023-03-15T12:30:52.025Z,1.50
2023-03-15T12:31:51.949Z,1.40
2023-03-15T12:32:51.946Z,1.60
2023-03-15T12:33:51.927Z,1.50
2023-03-15T12:34:51.927Z,1.40
2023-03-15T12:35:51.945Z,1.40
2023-03-15T12:36:51.877Z,1.30
2023-03-15T12:37:51.871Z,1.50
2023-03-15T12:38:51.870Z,1.50
2023-03-15T12:39:51.847Z,1.80
2023-03-15T12:40:51.826Z,1.40
2023-03-15T12:41:51.861Z,1.50
2023-03-15T12:42:51.808Z,1.30
2023-03-15T12:43:51.806Z,1.40
2023-03-15T12:44:51.835Z,1.10
2023-03-15T12:45:51.831Z,1.40
2023-03-15T12:46:51.761Z,1.40
2023-03-15T12:47:51.828Z,1.50
2023-03-15T12:48:51.733Z,1.50
2023-03-15T12:49:51.732Z,1.80
2023-03-15T12:50:51.740Z,1.40
2023-03-15T12:51:51.755Z,1.60
2023-03-15T12:52:51.690Z,1.80
2023-03-15T12:53:51.713Z,1.60
2023-03-15T12:54:51.673Z,1.60
2023-03-15T12:55:54.100Z,1.70
2023-03-15T12:56:51.653Z,1.60
2023-03-15T12:57:51.646Z,1.70
2023-03-15T12:58:51.628Z,1.50
2023-03-15T12:59:51.638Z,1.40
2023-03-15T13:00:51.623Z,1.40
2023-03-15T13:01:51.688Z,1.40
2023-03-15T13:02:51.602Z,1.30
2023-03-15T13:03:51.568Z,1.50
2023-03-15T13:04:51.568Z,1.20
2023-03-15T13:06:02.791Z,1.30
2023-03-15T13:06:51.538Z,1.20
2023-03-15T13:07:52.171Z,1.50
2023-03-15T13:08:51.510Z,1.10
2023-03-15T13:09:51.492Z,1.30
2023-03-15T13:10:51.492Z,1.20